This is the latest recevied weather packets stored in our database for station/object VK2OB. If no packets are shown the sender has not sent any weather packets the latest 10 day(s).
| Time | Temp. | Humidity | Pressure | Rain* | Wind** | Luminosity | Snow |
|---|---|---|---|---|---|---|---|
| 1777595264 | 26.67° C | 54% | 1029.5 hPa | 0 mm | - | - | - |
| 1777594966 | 26.11° C | 53% | 1029.5 hPa | 0 mm | - | - | - |
| 1777594667 | 26.11° C | 53% | 1029.6 hPa | 0 mm | - | - | - |
| 1777594368 | 26.11° C | 52% | 1029.6 hPa | 0 mm | - | - | - |
| 1777594069 | 26.67° C | 51% | 1029.6 hPa | 0 mm | - | - | - |
| 1777593770 | 26.67° C | 53% | 1029.6 hPa | 0 mm | - | - | - |
| 1777593471 | 26.11° C | 56% | 1029.6 hPa | 0 mm | - | - | - |
| 1777593172 | 26.67° C | 55% | 1029.7 hPa | 0 mm | - | - | - |
| 1777592873 | 26.67° C | 57% | 1029.7 hPa | 0 mm | - | - | - |
| 1777592574 | 26.11° C | 59% | 1029.6 hPa | 0 mm | - | - | - |
| 1777592275 | 25.56° C | 63% | 1029.7 hPa | 0 mm | - | - | - |
| 1777591976 | 24.44° C | 69% | 1029.7 hPa | 0 mm | - | - | - |
| 1777591677 | 22.78° C | 71% | 1029.7 hPa | 0 mm | - | - | - |
| 1777591378 | 22.22° C | 73% | 1029.7 hPa | 0 mm | - | - | - |
| 1777591079 | 21.67° C | 74% | 1029.7 hPa | 0 mm | - | - | - |
| 1777590780 | 21.67° C | 75% | 1029.8 hPa | 0 mm | - | - | - |
| 1777590481 | 21.67° C | 77% | 1029.7 hPa | 0 mm | - | - | - |
| 1777590176 | 21.11° C | 81% | 1029.8 hPa | 0 mm | - | - | - |
| 1777589571 | 20° C | 86% | 1029.7 hPa | 0 mm | - | - | - |
| 1777589272 | 19.44° C | 88% | 1029.8 hPa | 0 mm | - | - | - |
| 1777588973 | 18.89° C | 89% | 1029.8 hPa | 0 mm | - | - | - |
| 1777588674 | 18.89° C | 92% | 1029.7 hPa | 0 mm | - | - | - |
| 1777588375 | 18.89° C | 91% | 1029.7 hPa | 0 mm | - | - | - |
| 1777588076 | 18.89° C | 93% | 1029.6 hPa | 0 mm | - | - | - |
| 1777587777 | 18.33° C | 93% | 1029.7 hPa | 0 mm | - | - | - |
* Rain latest hour (hover to see other rain measurements)
** Current wind speed in m/s (hover to see current wind gust speed)